Time;durP1;ratioP1;P1;durP2;ratioP2;P2;SDS_P1;SDS_P2;PMS_P1;PMS_P2;Temp;Humidity;BMP_temperature;BMP_pressure;BME280_temperature;BME280_humidity;BME280_pressure;Samples;Min_cycle;Max_cycle;Signal;HPM_P1;HPM_P2
2024/01/13 00:03:17;;;;;;;;;;;-2.80;99.90;;;;;;20836376;28;19913;-75
2024/01/13 00:13:18;;;;;;;;;;;-3.00;99.90;;;;;;20842929;28;19916;-75
2024/01/13 00:23:18;;;;;;;;;;;-2.90;99.90;;;;;;20864931;28;20366;-75
2024/01/13 00:33:19;;;;;;;;;;;-3.10;99.90;;;;;;20852147;28;19991;-77
2024/01/13 00:43:19;;;;;;;;;;;-3.20;99.90;;;;;;20854326;28;19971;-74
2024/01/13 00:53:20;;;;;;;;;;;-3.10;99.90;;;;;;20862875;28;19921;-74
2024/01/13 01:03:21;;;;;;;;;;;-3.00;99.90;;;;;;20861435;28;19938;-75
2024/01/13 01:13:21;;;;;;;;;;;-2.90;99.90;;;;;;20851013;28;19924;-73
2024/01/13 01:23:24;;;;;;;;;;;-2.90;99.90;;;;;;20862968;28;20382;-75
2024/01/13 01:33:25;;;;;;;;;;;-3.00;99.90;;;;;;20870252;28;19917;-75
2024/01/13 01:43:25;;;;;;;;;;;-3.00;99.90;;;;;;20872476;28;19968;-74
2024/01/13 01:53:27;;;;;;;;;;;-3.00;99.90;;;;;;20872894;28;19916;-75
2024/01/13 02:03:28;;;;;;;;;;;-3.10;99.90;;;;;;20864643;28;20449;-74
2024/01/13 02:13:28;;;;;;;;;;;-3.30;99.90;;;;;;20858598;28;19917;-75
2024/01/13 02:23:29;;;;;;;;;;;-3.50;99.90;;;;;;20856370;28;19974;-76
2024/01/13 02:33:30;;;;;;;;;;;-3.60;99.90;;;;;;20859884;28;19963;-77
2024/01/13 02:43:30;;;;;;;;;;;-3.70;99.90;;;;;;20859442;28;19952;-75
2024/01/13 02:53:31;;;;;;;;;;;-3.90;99.90;;;;;;20855639;28;19948;-76
2024/01/13 03:03:35;;;;;;;;;;;-3.90;99.90;;;;;;20860185;28;20257;-75
2024/01/13 03:13:35;;;;;;;;;;;-4.20;99.90;;;;;;20876896;28;20011;-78
2024/01/13 03:23:36;;;;;;;;;;;-4.10;99.90;;;;;;20858973;28;19913;-76
2024/01/13 03:33:37;;;;;;;;;;;-4.10;99.90;;;;;;20856100;28;19970;-76
2024/01/13 03:43:37;;;;;;;;;;;-4.10;99.90;;;;;;20863023;28;19912;-77
2024/01/13 03:53:38;;;;;;;;;;;-4.10;99.90;;;;;;20872260;28;19938;-76
2024/01/13 04:03:39;;;;;;;;;;;-4.10;99.90;;;;;;20872219;28;20383;-76
2024/01/13 04:13:39;;;;;;;;;;;-4.10;99.90;;;;;;20886127;28;19944;-75
2024/01/13 04:23:40;;;;;;;;;;;-4.10;99.90;;;;;;20876284;28;19913;-77
2024/01/13 04:33:41;;;;;;;;;;;-4.00;99.90;;;;;;20880122;28;19923;-77
2024/01/13 04:43:41;;;;;;;;;;;-4.20;99.90;;;;;;20863222;28;19955;-77
2024/01/13 04:53:42;;;;;;;;;;;-4.20;99.90;;;;;;20869959;28;20298;-76
2024/01/13 05:03:43;;;;;;;;;;;-4.10;99.90;;;;;;20852377;28;20336;-77
2024/01/13 05:13:43;;;;;;;;;;;-4.20;99.90;;;;;;20842359;28;19924;-76
2024/01/13 05:23:44;;;;;;;;;;;-4.40;99.90;;;;;;20851157;28;19920;-77
2024/01/13 05:33:45;;;;;;;;;;;-4.20;99.90;;;;;;20866782;28;20341;-77
2024/01/13 05:43:45;;;;;;;;;;;-4.20;99.90;;;;;;20865393;28;19914;-76
2024/01/13 05:53:46;;;;;;;;;;;-4.30;99.90;;;;;;20871143;28;19972;-76
2024/01/13 06:03:47;;;;;;;;;;;-4.20;99.90;;;;;;20862025;28;19948;-77
2024/01/13 06:13:48;;;;;;;;;;;-4.20;99.90;;;;;;20835637;28;20356;-76
2024/01/13 06:23:48;;;;;;;;;;;-4.40;99.90;;;;;;20833461;28;20295;-75
2024/01/13 06:33:49;;;;;;;;;;;-4.20;99.90;;;;;;20854724;28;19927;-76
2024/01/13 06:43:50;;;;;;;;;;;-4.20;99.90;;;;;;20862219;28;20015;-76
2024/01/13 06:53:50;;;;;;;;;;;-4.20;99.90;;;;;;20850899;28;19952;-74
2024/01/13 07:03:52;;;;;;;;;;;-4.30;99.90;;;;;;20842503;28;19952;-76
2024/01/13 07:13:52;;;;;;;;;;;-4.20;99.90;;;;;;20865081;28;19967;-76
2024/01/13 07:23:53;;;;;;;;;;;-4.30;99.90;;;;;;20863958;28;19913;-77
2024/01/13 07:33:55;;;;;;;;;;;-4.40;99.90;;;;;;20896827;28;19917;-77
2024/01/13 07:43:56;;;;;;;;;;;-4.50;99.90;;;;;;20905617;28;19966;-77
2024/01/13 07:53:57;;;;;;;;;;;-4.60;99.90;;;;;;20907670;28;19942;-76
2024/01/13 08:03:57;;;;;;;;;;;-4.60;99.90;;;;;;20890028;28;19952;-76
2024/01/13 08:13:58;;;;;;;;;;;-4.40;99.90;;;;;;20906105;28;19917;-76
2024/01/13 08:23:59;;;;;;;;;;;-4.30;99.90;;;;;;20886177;28;19944;-77
2024/01/13 08:33:59;;;;;;;;;;;-4.20;99.90;;;;;;20904290;28;20417;-76
2024/01/13 08:44:00;;;;;;;;;;;-3.90;99.90;;;;;;20899334;28;19919;-76
2024/01/13 08:54:05;;;;;;;;;;;-3.70;99.90;;;;;;20912924;28;19916;-76
2024/01/13 09:04:09;;;;;;;;;;;-3.60;99.90;;;;;;20915445;28;20414;-77
2024/01/13 09:14:10;;;;;;;;;;;-3.50;99.90;;;;;;20904305;28;19917;-76
2024/01/13 09:24:11;;;;;;;;;;;-3.30;99.90;;;;;;20918198;28;20417;-76
2024/01/13 09:34:11;;;;;;;;;;;-3.20;99.90;;;;;;20893206;28;19990;-76
2024/01/13 09:44:18;;;;;;;;;;;-2.90;99.90;;;;;;20876500;28;19925;-75
2024/01/13 09:54:22;;;;;;;;;;;-2.90;99.90;;;;;;20863029;28;19933;-74
2024/01/13 10:04:22;;;;;;;;;;;-2.70;99.90;;;;;;20891732;28;20387;-76
2024/01/13 10:14:24;;;;;;;;;;;-2.30;99.90;;;;;;20857973;28;20000;-76
2024/01/13 10:24:25;;;;;;;;;;;-2.10;99.90;;;;;;20862219;28;19913;-77
2024/01/13 10:34:27;;;;;;;;;;;-2.10;99.90;;;;;;20858075;28;21414;-73
2024/01/13 10:44:28;;;;;;;;;;;-2.30;99.90;;;;;;20868111;28;20407;-76
2024/01/13 10:54:29;;;;;;;;;;;-2.10;99.90;;;;;;20871174;28;19928;-76
2024/01/13 11:04:30;;;;;;;;;;;-2.00;99.90;;;;;;20859077;28;19920;-77
2024/01/13 11:14:34;;;;;;;;;;;-1.70;99.90;;;;;;20864804;28;19917;-76
2024/01/13 11:24:35;;;;;;;;;;;-2.20;99.90;;;;;;20829295;28;19940;-74
2024/01/13 11:34:36;;;;;;;;;;;-1.90;99.90;;;;;;20865353;28;19960;-75
2024/01/13 11:44:41;;;;;;;;;;;-1.70;99.90;;;;;;20865224;28;20012;-75
2024/01/13 11:54:45;;;;;;;;;;;-1.70;99.90;;;;;;20859234;28;20284;-75
2024/01/13 12:04:49;;;;;;;;;;;-2.00;99.90;;;;;;20855594;28;19936;-76
2024/01/13 12:14:50;;;;;;;;;;;-1.60;99.90;;;;;;20864938;28;19921;-75
2024/01/13 12:24:51;;;;;;;;;;;-1.70;99.90;;;;;;20875860;28;19914;-76
2024/01/13 12:34:51;;;;;;;;;;;-1.50;99.90;;;;;;20884772;28;20345;-75
2024/01/13 12:44:52;;;;;;;;;;;-1.80;99.90;;;;;;20888385;28;19917;-74
2024/01/13 12:54:52;;;;;;;;;;;-1.50;99.90;;;;;;20890864;28;19920;-74
2024/01/13 13:04:54;;;;;;;;;;;-1.40;99.90;;;;;;20885853;28;20272;-75
2024/01/13 13:14:55;;;;;;;;;;;-1.20;99.90;;;;;;20872418;28;19952;-75
2024/01/13 13:24:56;;;;;;;;;;;-1.10;99.90;;;;;;20897697;28;19940;-74
2024/01/13 13:34:56;;;;;;;;;;;-1.20;99.90;;;;;;20913615;28;19964;-74
2024/01/13 13:44:57;;;;;;;;;;;-1.30;99.90;;;;;;20914611;28;19916;-74
2024/01/13 13:54:58;;;;;;;;;;;-1.00;99.90;;;;;;20914134;28;19963;-75
2024/01/13 14:04:58;;;;;;;;;;;-1.10;99.90;;;;;;20905659;28;19916;-75
2024/01/13 14:14:59;;;;;;;;;;;-0.90;99.90;;;;;;20911024;28;20383;-75
2024/01/13 14:25:00;;;;;;;;;;;-0.80;99.90;;;;;;20919220;28;19993;-75
2024/01/13 14:35:02;;;;;;;;;;;-1.10;99.90;;;;;;20893521;28;20386;-75
2024/01/13 14:45:04;;;;;;;;;;;-1.00;99.90;;;;;;20901664;28;20572;-76
2024/01/13 14:55:06;;;;;;;;;;;-1.40;99.90;;;;;;20906567;28;19912;-76
2024/01/13 15:05:07;;;;;;;;;;;-1.60;99.90;;;;;;20899889;28;19970;-76
2024/01/13 15:15:08;;;;;;;;;;;-1.50;99.90;;;;;;20907288;28;19924;-73
2024/01/13 15:25:12;;;;;;;;;;;-1.50;99.90;;;;;;20905526;28;20382;-76
2024/01/13 15:35:13;;;;;;;;;;;-1.40;99.90;;;;;;20859825;28;19956;-76
2024/01/13 15:45:13;;;;;;;;;;;-1.60;99.90;;;;;;20871869;28;19921;-77
2024/01/13 15:55:15;;;;;;;;;;;-2.00;99.90;;;;;;20881420;28;20367;-74
2024/01/13 16:05:16;;;;;;;;;;;-2.20;99.90;;;;;;20874749;28;20351;-75
2024/01/13 16:15:16;;;;;;;;;;;-2.40;99.90;;;;;;20867882;28;19948;-75
2024/01/13 16:25:17;;;;;;;;;;;-2.40;99.90;;;;;;20854010;28;19921;-76
2024/01/13 16:35:18;;;;;;;;;;;-2.40;99.90;;;;;;20842377;28;20398;-75
2024/01/13 16:45:18;;;;;;;;;;;-2.40;99.90;;;;;;20852733;28;20372;-77
2024/01/13 16:55:19;;;;;;;;;;;-2.40;99.90;;;;;;20857884;28;19917;-75
2024/01/13 17:05:22;;;;;;;;;;;-2.40;99.90;;;;;;20858662;28;20015;-77
2024/01/13 17:15:22;;;;;;;;;;;-2.40;99.90;;;;;;20855121;28;20503;-76
2024/01/13 17:25:23;;;;;;;;;;;-2.40;99.90;;;;;;20871691;28;19975;-76
2024/01/13 17:35:24;;;;;;;;;;;-2.40;99.90;;;;;;20845509;28;19963;-77
2024/01/13 17:45:24;;;;;;;;;;;-2.50;99.90;;;;;;20853805;28;19917;-77
2024/01/13 17:55:25;;;;;;;;;;;-2.50;99.90;;;;;;20884583;28;20007;-77
2024/01/13 18:05:29;;;;;;;;;;;-2.50;99.90;;;;;;20890150;28;20023;-76
2024/01/13 18:15:31;;;;;;;;;;;-2.60;99.90;;;;;;20910029;28;19968;-77
2024/01/13 18:25:31;;;;;;;;;;;-2.60;99.90;;;;;;20884755;28;20016;-75
2024/01/13 18:35:32;;;;;;;;;;;-2.70;99.90;;;;;;20887628;28;19944;-76
2024/01/13 18:45:33;;;;;;;;;;;-2.80;99.90;;;;;;20898305;28;20308;-76
2024/01/13 18:55:33;;;;;;;;;;;-2.80;99.90;;;;;;20890412;28;19912;-75
2024/01/13 19:05:34;;;;;;;;;;;-2.80;99.90;;;;;;20853486;28;19924;-76
2024/01/13 19:15:35;;;;;;;;;;;-2.80;99.90;;;;;;20881030;28;19925;-77
2024/01/13 19:25:36;;;;;;;;;;;-2.90;99.90;;;;;;20884382;28;19917;-75
2024/01/13 19:35:36;;;;;;;;;;;-3.00;99.90;;;;;;20881732;28;19963;-76
2024/01/13 19:45:37;;;;;;;;;;;-3.00;99.90;;;;;;20866162;28;19917;-76
2024/01/13 19:55:38;;;;;;;;;;;-3.00;99.90;;;;;;20880947;28;19913;-76
2024/01/13 20:05:38;;;;;;;;;;;-3.20;99.90;;;;;;20842357;28;19923;-75
2024/01/13 20:15:39;;;;;;;;;;;-3.30;99.90;;;;;;20850978;28;20391;-77
2024/01/13 20:25:40;;;;;;;;;;;-3.40;99.90;;;;;;20900592;28;20641;-76
2024/01/13 20:35:41;;;;;;;;;;;-3.20;99.90;;;;;;20910638;28;19921;-77
2024/01/13 20:45:42;;;;;;;;;;;-3.30;99.90;;;;;;20859798;28;20373;-76
2024/01/13 20:55:43;;;;;;;;;;;-3.50;99.90;;;;;;20884745;28;20003;-75
2024/01/13 21:05:44;;;;;;;;;;;-3.60;99.90;;;;;;20896013;28;19967;-76
2024/01/13 21:15:44;;;;;;;;;;;-3.70;99.90;;;;;;20881207;28;19913;-76
2024/01/13 21:25:45;;;;;;;;;;;-3.80;99.90;;;;;;20878354;28;20449;-77
2024/01/13 21:35:46;;;;;;;;;;;-3.80;99.90;;;;;;20838127;28;19921;-77
2024/01/13 21:45:46;;;;;;;;;;;-3.70;99.90;;;;;;20873042;28;19921;-79
2024/01/13 21:55:48;;;;;;;;;;;-3.70;99.90;;;;;;20892428;28;19913;-76
2024/01/13 22:05:49;;;;;;;;;;;-3.70;99.90;;;;;;20895672;28;20433;-76
2024/01/13 22:15:50;;;;;;;;;;;-3.90;99.90;;;;;;20889464;28;19913;-76
2024/01/13 22:25:50;;;;;;;;;;;-3.90;99.90;;;;;;20850812;28;19931;-76
2024/01/13 22:35:51;;;;;;;;;;;-3.90;99.90;;;;;;20871762;28;19921;-76
2024/01/13 22:45:52;;;;;;;;;;;-3.90;99.90;;;;;;20870848;28;19932;-75
2024/01/13 22:55:52;;;;;;;;;;;-3.80;99.90;;;;;;20863113;28;19913;-74
2024/01/13 23:05:53;;;;;;;;;;;-3.80;99.90;;;;;;20859549;28;20003;-74
2024/01/13 23:15:53;;;;;;;;;;;-3.60;99.90;;;;;;20860447;28;19913;-73
2024/01/13 23:25:54;;;;;;;;;;;-3.60;99.90;;;;;;20859571;28;20308;-74
2024/01/13 23:35:55;;;;;;;;;;;-3.70;99.90;;;;;;20873529;28;19921;-74
2024/01/13 23:45:56;;;;;;;;;;;-3.50;99.90;;;;;;20888438;28;19916;-75
2024/01/13 23:55:56;;;;;;;;;;;-3.50;99.90;;;;;;20867676;28;20435;-75
